sensor_id;sensor_type;location;lat;lon;timestamp;pressure;altitude;pressure_sealevel;temperature;humidity
71948;BME280;63257;55.082;38.772;2023-05-01T00:00:51;98960.53;;;6.65;95.02
71948;BME280;63257;55.082;38.772;2023-05-01T00:03:17;98955.06;;;6.69;94.74
71948;BME280;63257;55.082;38.772;2023-05-01T00:05:44;98944.34;;;6.56;94.76
71948;BME280;63257;55.082;38.772;2023-05-01T00:08:11;98944.22;;;6.59;94.70
71948;BME280;63257;55.082;38.772;2023-05-01T00:10:38;98946.25;;;6.70;94.77
71948;BME280;63257;55.082;38.772;2023-05-01T00:13:04;98938.47;;;6.69;94.48
71948;BME280;63257;55.082;38.772;2023-05-01T00:15:31;98931.19;;;6.74;95.10
71948;BME280;63257;55.082;38.772;2023-05-01T00:17:57;98915.13;;;6.64;94.85
71948;BME280;63257;55.082;38.772;2023-05-01T00:20:30;98914.50;;;6.59;95.01
71948;BME280;63257;55.082;38.772;2023-05-01T00:22:56;98902.06;;;6.47;95.40
71948;BME280;63257;55.082;38.772;2023-05-01T00:25:22;98888.78;;;6.50;95.90
71948;BME280;63257;55.082;38.772;2023-05-01T00:27:48;98875.09;;;6.44;96.50
71948;BME280;63257;55.082;38.772;2023-05-01T00:30:14;98884.78;;;6.42;96.29
71948;BME280;63257;55.082;38.772;2023-05-01T00:32:40;98877.84;;;6.41;95.87
71948;BME280;63257;55.082;38.772;2023-05-01T00:35:06;98848.66;;;6.32;96.60
71948;BME280;63257;55.082;38.772;2023-05-01T00:37:33;98861.91;;;6.46;97.09
71948;BME280;63257;55.082;38.772;2023-05-01T00:39:59;98863.75;;;6.44;96.43
71948;BME280;63257;55.082;38.772;2023-05-01T00:42:25;98873.66;;;6.39;96.87
71948;BME280;63257;55.082;38.772;2023-05-01T00:44:51;98857.13;;;6.37;96.68
71948;BME280;63257;55.082;38.772;2023-05-01T00:47:17;98849.97;;;6.40;96.84
71948;BME280;63257;55.082;38.772;2023-05-01T00:49:43;98847.34;;;6.40;96.73
71948;BME280;63257;55.082;38.772;2023-05-01T00:52:10;98846.91;;;6.48;96.32
71948;BME280;63257;55.082;38.772;2023-05-01T00:54:36;98848.97;;;6.43;96.76
71948;BME280;63257;55.082;38.772;2023-05-01T00:57:03;98853.94;;;6.48;97.11
71948;BME280;63257;55.082;38.772;2023-05-01T00:59:29;98869.16;;;6.41;96.45
71948;BME280;63257;55.082;38.772;2023-05-01T01:01:55;98888.28;;;6.43;96.49
71948;BME280;63257;55.082;38.772;2023-05-01T01:04:22;98894.09;;;6.48;96.51
71948;BME280;63257;55.082;38.772;2023-05-01T01:06:57;98885.97;;;6.37;96.15
71948;BME280;63257;55.082;38.772;2023-05-01T01:10:34;98875.41;;;6.38;96.48
71948;BME280;63257;55.082;38.772;2023-05-01T01:13:01;98893.34;;;6.46;96.98
71948;BME280;63257;55.082;38.772;2023-05-01T01:15:34;98903.41;;;6.54;95.95
71948;BME280;63257;55.082;38.772;2023-05-01T01:18:18;98893.13;;;6.33;95.71
71948;BME280;63257;55.082;38.772;2023-05-01T01:35:36;98934.44;;;6.79;94.37
71948;BME280;63257;55.082;38.772;2023-05-01T01:38:45;98937.88;;;6.79;93.64
71948;BME280;63257;55.082;38.772;2023-05-01T01:41:16;98935.53;;;6.75;93.72
71948;BME280;63257;55.082;38.772;2023-05-01T01:43:46;98938.41;;;6.86;94.09
71948;BME280;63257;55.082;38.772;2023-05-01T01:46:15;98915.81;;;6.84;92.86
71948;BME280;63257;55.082;38.772;2023-05-01T01:48:45;98930.28;;;6.75;92.69
71948;BME280;63257;55.082;38.772;2023-05-01T01:51:15;98916.66;;;6.68;93.82
71948;BME280;63257;55.082;38.772;2023-05-01T01:53:45;98887.38;;;6.60;93.41
71948;BME280;63257;55.082;38.772;2023-05-01T01:56:13;98911.75;;;6.78;93.78
71948;BME280;63257;55.082;38.772;2023-05-01T01:58:41;98918.44;;;6.84;93.45
71948;BME280;63257;55.082;38.772;2023-05-01T02:01:09;98925.63;;;6.80;93.45
71948;BME280;63257;55.082;38.772;2023-05-01T02:03:37;98926.78;;;6.74;93.49
71948;BME280;63257;55.082;38.772;2023-05-01T02:06:04;98937.81;;;6.81;93.97
71948;BME280;63257;55.082;38.772;2023-05-01T02:08:32;98917.22;;;6.57;94.13
71948;BME280;63257;55.082;38.772;2023-05-01T02:11:00;98945.50;;;6.68;94.03
71948;BME280;63257;55.082;38.772;2023-05-01T02:13:28;98952.09;;;6.59;93.98
71948;BME280;63257;55.082;38.772;2023-05-01T02:15:57;98950.38;;;6.58;95.43
71948;BME280;63257;55.082;38.772;2023-05-01T02:18:27;98952.13;;;6.58;94.85
71948;BME280;63257;55.082;38.772;2023-05-01T02:20:55;98953.19;;;6.71;94.66
71948;BME280;63257;55.082;38.772;2023-05-01T02:23:23;98960.88;;;6.74;94.73
71948;BME280;63257;55.082;38.772;2023-05-01T02:25:52;98955.25;;;6.82;94.17
71948;BME280;63257;55.082;38.772;2023-05-01T02:28:22;98959.06;;;6.92;94.18
71948;BME280;63257;55.082;38.772;2023-05-01T02:30:49;98960.00;;;6.91;93.54
71948;BME280;63257;55.082;38.772;2023-05-01T02:33:14;98936.13;;;6.80;93.56
71948;BME280;63257;55.082;38.772;2023-05-01T02:35:44;98950.16;;;6.95;93.41
71948;BME280;63257;55.082;38.772;2023-05-01T02:38:15;98938.09;;;6.92;93.41
71948;BME280;63257;55.082;38.772;2023-05-01T02:40:46;98946.53;;;6.97;93.29
71948;BME280;63257;55.082;38.772;2023-05-01T02:43:16;98960.53;;;6.98;92.93
71948;BME280;63257;55.082;38.772;2023-05-01T02:45:43;98969.81;;;7.04;92.79
71948;BME280;63257;55.082;38.772;2023-05-01T02:48:12;98978.00;;;6.97;92.92
71948;BME280;63257;55.082;38.772;2023-05-01T02:50:43;98972.03;;;6.95;93.05
71948;BME280;63257;55.082;38.772;2023-05-01T02:53:12;98988.03;;;7.07;92.73
71948;BME280;63257;55.082;38.772;2023-05-01T02:56:02;98972.03;;;6.95;92.31
71948;BME280;63257;55.082;38.772;2023-05-01T02:58:30;98996.50;;;7.12;92.36
71948;BME280;63257;55.082;38.772;2023-05-01T03:00:56;99001.56;;;7.15;92.29
71948;BME280;63257;55.082;38.772;2023-05-01T03:03:23;99008.25;;;7.21;91.94
71948;BME280;63257;55.082;38.772;2023-05-01T03:05:49;98994.22;;;7.22;91.81
71948;BME280;63257;55.082;38.772;2023-05-01T03:08:16;98980.66;;;7.13;91.45
71948;BME280;63257;55.082;38.772;2023-05-01T03:10:42;98986.75;;;7.14;92.16
71948;BME280;63257;55.082;38.772;2023-05-01T03:13:09;98983.88;;;7.03;92.22
71948;BME280;63257;55.082;38.772;2023-05-01T03:15:36;98984.56;;;7.06;92.49
71948;BME280;63257;55.082;38.772;2023-05-01T03:18:03;98997.78;;;7.05;92.02
71948;BME280;63257;55.082;38.772;2023-05-01T03:20:29;98991.66;;;7.04;92.46
71948;BME280;63257;55.082;38.772;2023-05-01T03:22:56;98975.75;;;6.91;92.55
71948;BME280;63257;55.082;38.772;2023-05-01T03:25:22;98988.81;;;7.09;92.54
71948;BME280;63257;55.082;38.772;2023-05-01T03:27:48;98991.47;;;7.07;91.71
71948;BME280;63257;55.082;38.772;2023-05-01T03:30:15;98977.09;;;6.99;91.97
71948;BME280;63257;55.082;38.772;2023-05-01T03:32:42;98986.22;;;7.07;92.05
71948;BME280;63257;55.082;38.772;2023-05-01T03:35:15;98978.88;;;6.98;91.36
71948;BME280;63257;55.082;38.772;2023-05-01T03:37:42;98995.97;;;7.05;92.01
71948;BME280;63257;55.082;38.772;2023-05-01T03:40:09;98992.25;;;7.09;92.78
71948;BME280;63257;55.082;38.772;2023-05-01T03:42:53;98993.78;;;7.13;91.86
71948;BME280;63257;55.082;38.772;2023-05-01T03:45:22;98976.59;;;7.08;91.57
71948;BME280;63257;55.082;38.772;2023-05-01T03:47:48;98966.84;;;7.10;91.76
71948;BME280;63257;55.082;38.772;2023-05-01T03:50:14;98996.06;;;7.20;91.48
71948;BME280;63257;55.082;38.772;2023-05-01T03:52:43;99001.91;;;7.25;91.66
71948;BME280;63257;55.082;38.772;2023-05-01T03:55:08;98983.56;;;7.09;91.31
71948;BME280;63257;55.082;38.772;2023-05-01T03:57:39;99004.81;;;7.20;90.81
71948;BME280;63257;55.082;38.772;2023-05-01T04:00:06;98998.25;;;7.11;91.34
71948;BME280;63257;55.082;38.772;2023-05-01T04:02:41;99000.66;;;7.16;91.52
71948;BME280;63257;55.082;38.772;2023-05-01T04:05:10;98998.59;;;7.05;91.77
71948;BME280;63257;55.082;38.772;2023-05-01T04:07:39;98999.97;;;7.12;91.94
71948;BME280;63257;55.082;38.772;2023-05-01T04:10:16;98990.47;;;7.10;92.37
71948;BME280;63257;55.082;38.772;2023-05-01T04:12:49;98978.09;;;6.96;92.31
71948;BME280;63257;55.082;38.772;2023-05-01T04:15:16;99000.88;;;7.11;92.20
71948;BME280;63257;55.082;38.772;2023-05-01T04:17:42;99011.47;;;7.10;92.35
71948;BME280;63257;55.082;38.772;2023-05-01T04:20:11;99014.53;;;7.18;92.10
71948;BME280;63257;55.082;38.772;2023-05-01T04:22:37;99011.97;;;7.17;92.09
71948;BME280;63257;55.082;38.772;2023-05-01T04:25:03;99020.47;;;7.22;91.42
71948;BME280;63257;55.082;38.772;2023-05-01T04:27:30;99005.28;;;7.11;91.79
71948;BME280;63257;55.082;38.772;2023-05-01T04:34:44;99009.97;;;7.22;91.71
71948;BME280;63257;55.082;38.772;2023-05-01T04:37:10;98986.22;;;7.07;91.26
71948;BME280;63257;55.082;38.772;2023-05-01T04:39:37;99006.38;;;7.07;91.38
71948;BME280;63257;55.082;38.772;2023-05-01T04:42:03;98977.94;;;6.99;90.98
71948;BME280;63257;55.082;38.772;2023-05-01T04:44:30;99018.28;;;7.30;90.67
71948;BME280;63257;55.082;38.772;2023-05-01T04:47:00;99014.03;;;7.27;90.08
71948;BME280;63257;55.082;38.772;2023-05-01T04:49:27;99001.41;;;7.18;90.17
71948;BME280;63257;55.082;38.772;2023-05-01T04:51:53;99007.59;;;7.17;91.40
71948;BME280;63257;55.082;38.772;2023-05-01T04:54:21;99004.03;;;7.18;91.71
71948;BME280;63257;55.082;38.772;2023-05-01T04:56:48;99017.06;;;7.20;91.25
71948;BME280;63257;55.082;38.772;2023-05-01T04:59:14;99018.75;;;7.21;91.28
71948;BME280;63257;55.082;38.772;2023-05-01T05:01:40;99022.41;;;7.18;90.58
71948;BME280;63257;55.082;38.772;2023-05-01T05:04:06;99002.50;;;7.14;90.49
71948;BME280;63257;55.082;38.772;2023-05-01T05:06:32;99016.06;;;7.22;90.77
71948;BME280;63257;55.082;38.772;2023-05-01T05:08:58;99014.19;;;7.24;90.14
71948;BME280;63257;55.082;38.772;2023-05-01T05:11:24;98993.00;;;7.11;89.72
71948;BME280;63257;55.082;38.772;2023-05-01T05:13:51;98995.06;;;7.06;89.37
71948;BME280;63257;55.082;38.772;2023-05-01T05:16:17;99012.19;;;7.29;90.23
71948;BME280;63257;55.082;38.772;2023-05-01T05:18:43;99017.25;;;7.33;89.50
71948;BME280;63257;55.082;38.772;2023-05-01T05:21:09;99025.13;;;7.33;88.89
71948;BME280;63257;55.082;38.772;2023-05-01T05:23:36;99031.00;;;7.38;89.21
71948;BME280;63257;55.082;38.772;2023-05-01T05:26:02;99028.78;;;7.30;88.90
71948;BME280;63257;55.082;38.772;2023-05-01T05:28:30;99024.47;;;7.45;89.46
71948;BME280;63257;55.082;38.772;2023-05-01T05:30:57;99028.19;;;7.41;88.77
71948;BME280;63257;55.082;38.772;2023-05-01T05:33:25;99029.97;;;7.56;88.38
71948;BME280;63257;55.082;38.772;2023-05-01T05:35:51;99036.31;;;7.68;88.04
71948;BME280;63257;55.082;38.772;2023-05-01T05:38:20;99040.97;;;7.79;87.64
71948;BME280;63257;55.082;38.772;2023-05-01T05:41:15;99052.41;;;7.78;88.19
71948;BME280;63257;55.082;38.772;2023-05-01T05:43:42;99052.81;;;7.70;86.29
71948;BME280;63257;55.082;38.772;2023-05-01T05:46:08;99060.69;;;7.70;86.76
71948;BME280;63257;55.082;38.772;2023-05-01T05:48:35;99064.25;;;7.69;86.25
71948;BME280;63257;55.082;38.772;2023-05-01T05:51:02;99065.53;;;7.78;86.64
71948;BME280;63257;55.082;38.772;2023-05-01T05:53:29;99052.41;;;7.78;86.19
71948;BME280;63257;55.082;38.772;2023-05-01T05:55:55;99069.75;;;7.96;86.00
71948;BME280;63257;55.082;38.772;2023-05-01T05:58:21;99071.34;;;7.99;85.49
71948;BME280;63257;55.082;38.772;2023-05-01T06:00:49;99077.34;;;8.17;84.87
71948;BME280;63257;55.082;38.772;2023-05-01T06:03:17;99072.34;;;8.28;84.58
71948;BME280;63257;55.082;38.772;2023-05-01T06:05:44;99071.84;;;8.22;84.58
71948;BME280;63257;55.082;38.772;2023-05-01T06:08:11;99077.00;;;8.23;84.24
71948;BME280;63257;55.082;38.772;2023-05-01T06:10:41;99082.34;;;8.22;83.93
71948;BME280;63257;55.082;38.772;2023-05-01T06:13:07;99068.72;;;8.15;83.33
71948;BME280;63257;55.082;38.772;2023-05-01T06:15:36;99077.81;;;8.09;83.62
71948;BME280;63257;55.082;38.772;2023-05-01T06:18:03;99079.81;;;8.20;83.87
71948;BME280;63257;55.082;38.772;2023-05-01T06:20:29;99087.63;;;8.22;83.31
71948;BME280;63257;55.082;38.772;2023-05-01T06:22:55;99092.50;;;8.28;83.55
71948;BME280;63257;55.082;38.772;2023-05-01T06:25:27;99084.63;;;8.28;84.03
71948;BME280;63257;55.082;38.772;2023-05-01T06:27:53;99081.66;;;8.34;83.21
71948;BME280;63257;55.082;38.772;2023-05-01T06:30:21;99088.69;;;8.33;82.49
71948;BME280;63257;55.082;38.772;2023-05-01T06:32:47;99085.13;;;8.35;83.64
71948;BME280;63257;55.082;38.772;2023-05-01T06:35:14;99080.97;;;8.30;83.87
71948;BME280;63257;55.082;38.772;2023-05-01T06:37:40;99099.56;;;8.27;83.25
71948;BME280;63257;55.082;38.772;2023-05-01T06:40:08;99106.34;;;8.31;83.90
71948;BME280;63257;55.082;38.772;2023-05-01T06:42:36;99110.13;;;8.42;82.96
71948;BME280;63257;55.082;38.772;2023-05-01T06:45:02;99117.50;;;8.51;82.17
71948;BME280;63257;55.082;38.772;2023-05-01T06:47:32;99102.59;;;8.36;82.71
71948;BME280;63257;55.082;38.772;2023-05-01T06:50:01;99116.00;;;8.47;82.14
71948;BME280;63257;55.082;38.772;2023-05-01T06:52:31;99108.47;;;8.71;81.70
71948;BME280;63257;55.082;38.772;2023-05-01T06:54:57;99113.50;;;8.90;80.51
71948;BME280;63257;55.082;38.772;2023-05-01T06:57:23;99115.94;;;9.08;80.18
71948;BME280;63257;55.082;38.772;2023-05-01T06:59:49;99128.72;;;9.28;80.02
71948;BME280;63257;55.082;38.772;2023-05-01T07:02:15;99123.38;;;9.44;78.01
71948;BME280;63257;55.082;38.772;2023-05-01T07:04:41;99129.69;;;9.56;77.62
71948;BME280;63257;55.082;38.772;2023-05-01T07:07:09;99124.31;;;9.58;78.30
71948;BME280;63257;55.082;38.772;2023-05-01T07:09:35;99128.16;;;9.66;77.27
71948;BME280;63257;55.082;38.772;2023-05-01T07:12:01;99129.28;;;9.62;76.20
71948;BME280;63257;55.082;38.772;2023-05-01T07:14:28;99101.84;;;9.38;75.34
71948;BME280;63257;55.082;38.772;2023-05-01T07:16:53;99138.34;;;9.73;76.96
71948;BME280;63257;55.082;38.772;2023-05-01T07:19:20;99138.56;;;9.97;76.73
71948;BME280;63257;55.082;38.772;2023-05-01T07:21:46;99152.28;;;10.02;74.71
71948;BME280;63257;55.082;38.772;2023-05-01T07:24:12;99145.94;;;9.77;75.20
71948;BME280;63257;55.082;38.772;2023-05-01T07:26:38;99158.34;;;9.75;75.24
71948;BME280;63257;55.082;38.772;2023-05-01T07:29:04;99160.97;;;9.90;74.66
71948;BME280;63257;55.082;38.772;2023-05-01T07:31:30;99140.56;;;9.93;74.54
71948;BME280;63257;55.082;38.772;2023-05-01T07:33:55;99157.56;;;9.88;74.33
71948;BME280;63257;55.082;38.772;2023-05-01T07:36:21;99164.78;;;10.13;74.61
71948;BME280;63257;55.082;38.772;2023-05-01T07:43:00;99175.19;;;10.01;73.49
71948;BME280;63257;55.082;38.772;2023-05-01T07:45:26;99186.03;;;10.24;73.79
71948;BME280;63257;55.082;38.772;2023-05-01T07:47:52;99174.47;;;10.27;72.94
71948;BME280;63257;55.082;38.772;2023-05-01T07:50:18;99180.25;;;10.05;74.32
71948;BME280;63257;55.082;38.772;2023-05-01T07:52:44;99182.63;;;9.95;74.48
71948;BME280;63257;55.082;38.772;2023-05-01T07:55:11;99180.66;;;10.26;74.11
71948;BME280;63257;55.082;38.772;2023-05-01T07:57:37;99177.66;;;10.32;71.50
71948;BME280;63257;55.082;38.772;2023-05-01T08:04:21;99180.88;;;10.23;73.66
71948;BME280;63257;55.082;38.772;2023-05-01T08:06:49;99171.06;;;10.25;73.69
71948;BME280;63257;55.082;38.772;2023-05-01T08:09:18;99168.28;;;10.55;71.87
71948;BME280;63257;55.082;38.772;2023-05-01T08:11:44;99167.59;;;10.39;71.01
71948;BME280;63257;55.082;38.772;2023-05-01T08:14:10;99187.72;;;10.67;71.00
71948;BME280;63257;55.082;38.772;2023-05-01T08:16:36;99170.00;;;10.69;71.39
71948;BME280;63257;55.082;38.772;2023-05-01T08:19:02;99184.72;;;10.99;70.71
71948;BME280;63257;55.082;38.772;2023-05-01T08:21:28;99191.59;;;11.01;69.60
71948;BME280;63257;55.082;38.772;2023-05-01T08:23:54;99196.28;;;11.24;69.54
71948;BME280;63257;55.082;38.772;2023-05-01T08:26:23;99186.84;;;11.19;68.47
71948;BME280;63257;55.082;38.772;2023-05-01T08:28:49;99206.66;;;11.27;69.16
71948;BME280;63257;55.082;38.772;2023-05-01T08:31:15;99200.91;;;11.07;67.98
71948;BME280;63257;55.082;38.772;2023-05-01T08:33:41;99192.47;;;11.15;67.25
71948;BME280;63257;55.082;38.772;2023-05-01T08:36:09;99217.41;;;11.24;67.02
71948;BME280;63257;55.082;38.772;2023-05-01T08:38:36;99208.31;;;11.28;67.22
71948;BME280;63257;55.082;38.772;2023-05-01T08:41:02;99207.41;;;11.54;66.35
71948;BME280;63257;55.082;38.772;2023-05-01T08:43:31;99219.78;;;11.54;66.35
71948;BME280;63257;55.082;38.772;2023-05-01T08:45:58;99219.97;;;11.38;65.17
71948;BME280;63257;55.082;38.772;2023-05-01T08:48:28;99210.47;;;11.61;64.62
71948;BME280;63257;55.082;38.772;2023-05-01T08:50:56;99231.06;;;11.95;64.87
71948;BME280;63257;55.082;38.772;2023-05-01T08:53:25;99223.03;;;12.09;63.41
71948;BME280;63257;55.082;38.772;2023-05-01T08:55:54;99237.16;;;12.34;63.08
71948;BME280;63257;55.082;38.772;2023-05-01T08:58:23;99236.72;;;12.27;62.57
71948;BME280;63257;55.082;38.772;2023-05-01T09:00:49;99230.97;;;11.96;62.58
71948;BME280;63257;55.082;38.772;2023-05-01T09:03:16;99239.22;;;11.79;63.93
71948;BME280;63257;55.082;38.772;2023-05-01T09:05:42;99240.38;;;11.75;64.45
71948;BME280;63257;55.082;38.772;2023-05-01T09:08:08;99253.59;;;11.62;65.36
71948;BME280;63257;55.082;38.772;2023-05-01T09:10:38;99236.16;;;11.46;64.62
71948;BME280;63257;55.082;38.772;2023-05-01T09:13:06;99237.53;;;11.39;65.61
71948;BME280;63257;55.082;38.772;2023-05-01T09:15:33;99244.16;;;11.32;65.42
71948;BME280;63257;55.082;38.772;2023-05-01T09:17:59;99241.22;;;11.36;64.95
71948;BME280;63257;55.082;38.772;2023-05-01T09:20:27;99237.38;;;11.15;63.99
71948;BME280;63257;55.082;38.772;2023-05-01T09:22:54;99250.50;;;11.29;63.22
71948;BME280;63257;55.082;38.772;2023-05-01T09:25:22;99244.47;;;11.40;63.14
71948;BME280;63257;55.082;38.772;2023-05-01T09:27:48;99250.19;;;11.47;62.82
71948;BME280;63257;55.082;38.772;2023-05-01T09:30:34;99244.16;;;11.58;62.71
71948;BME280;63257;55.082;38.772;2023-05-01T09:33:14;99251.66;;;11.51;63.13
71948;BME280;63257;55.082;38.772;2023-05-01T09:38:46;99254.63;;;11.59;64.58
71948;BME280;63257;55.082;38.772;2023-05-01T09:41:13;99254.53;;;11.74;63.15
71948;BME280;63257;55.082;38.772;2023-05-01T09:43:39;99252.53;;;11.77;63.98
71948;BME280;63257;55.082;38.772;2023-05-01T09:46:09;99248.94;;;11.91;63.43
71948;BME280;63257;55.082;38.772;2023-05-01T09:48:35;99249.78;;;12.17;63.55
71948;BME280;63257;55.082;38.772;2023-05-01T09:53:56;99251.16;;;12.47;60.81
71948;BME280;63257;55.082;38.772;2023-05-01T09:56:24;99217.25;;;12.28;61.28
71948;BME280;63257;55.082;38.772;2023-05-01T09:58:53;99241.31;;;12.49;60.80
71948;BME280;63257;55.082;38.772;2023-05-01T10:01:38;99258.13;;;12.61;60.97
71948;BME280;63257;55.082;38.772;2023-05-01T10:04:05;99264.28;;;12.86;60.84
71948;BME280;63257;55.082;38.772;2023-05-01T10:06:31;99259.47;;;12.91;59.62
71948;BME280;63257;55.082;38.772;2023-05-01T10:08:57;99261.44;;;12.76;59.83
71948;BME280;63257;55.082;38.772;2023-05-01T10:11:23;99255.31;;;12.38;58.86
71948;BME280;63257;55.082;38.772;2023-05-01T10:14:08;99256.53;;;12.59;60.68
71948;BME280;63257;55.082;38.772;2023-05-01T10:16:36;99270.13;;;12.78;58.40
71948;BME280;63257;55.082;38.772;2023-05-01T10:19:03;99258.97;;;12.62;59.31
71948;BME280;63257;55.082;38.772;2023-05-01T10:21:30;99255.13;;;12.66;60.03
71948;BME280;63257;55.082;38.772;2023-05-01T10:23:58;99263.31;;;12.63;58.72
71948;BME280;63257;55.082;38.772;2023-05-01T10:26:25;99255.66;;;12.71;59.15
71948;BME280;63257;55.082;38.772;2023-05-01T10:28:51;99271.31;;;12.98;58.74
71948;BME280;63257;55.082;38.772;2023-05-01T10:31:18;99278.81;;;13.16;57.69
71948;BME280;63257;55.082;38.772;2023-05-01T10:33:44;99280.25;;;13.09;57.31
71948;BME280;63257;55.082;38.772;2023-05-01T10:38:59;99289.34;;;12.93;57.56
71948;BME280;63257;55.082;38.772;2023-05-01T10:44:23;99259.84;;;12.98;58.20
71948;BME280;63257;55.082;38.772;2023-05-01T10:46:49;99290.75;;;13.21;57.45
71948;BME280;63257;55.082;38.772;2023-05-01T10:49:16;99301.03;;;13.26;57.23
71948;BME280;63257;55.082;38.772;2023-05-01T10:52:12;99303.41;;;12.94;57.21
71948;BME280;63257;55.082;38.772;2023-05-01T10:54:38;99295.19;;;13.10;57.71
71948;BME280;63257;55.082;38.772;2023-05-01T10:57:42;99299.44;;;13.12;56.80
71948;BME280;63257;55.082;38.772;2023-05-01T11:00:09;99286.72;;;13.64;54.48
71948;BME280;63257;55.082;38.772;2023-05-01T11:02:35;99305.88;;;13.68;54.30
71948;BME280;63257;55.082;38.772;2023-05-01T11:05:01;99318.31;;;13.79;51.15
71948;BME280;63257;55.082;38.772;2023-05-01T11:07:29;99302.53;;;13.77;51.92
71948;BME280;63257;55.082;38.772;2023-05-01T11:09:56;99301.63;;;13.43;52.88
71948;BME280;63257;55.082;38.772;2023-05-01T11:12:49;99314.13;;;13.40;49.85
71948;BME280;63257;55.082;38.772;2023-05-01T11:17:51;99323.47;;;13.33;52.04
71948;BME280;63257;55.082;38.772;2023-05-01T11:22:53;99340.19;;;13.47;52.95
71948;BME280;63257;55.082;38.772;2023-05-01T11:25:22;99333.94;;;13.48;52.72
71948;BME280;63257;55.082;38.772;2023-05-01T11:27:56;99343.81;;;13.57;52.63
71948;BME280;63257;55.082;38.772;2023-05-01T11:30:22;99347.72;;;13.64;52.14
71948;BME280;63257;55.082;38.772;2023-05-01T11:32:48;99342.94;;;13.45;51.56
71948;BME280;63257;55.082;38.772;2023-05-01T11:35:19;99350.03;;;13.20;52.02
71948;BME280;63257;55.082;38.772;2023-05-01T11:38:01;99351.50;;;13.00;52.97
71948;BME280;63257;55.082;38.772;2023-05-01T11:40:29;99343.38;;;12.90;53.34
71948;BME280;63257;55.082;38.772;2023-05-01T11:43:06;99345.19;;;12.90;54.24
71948;BME280;63257;55.082;38.772;2023-05-01T11:45:33;99358.72;;;12.98;54.12
71948;BME280;63257;55.082;38.772;2023-05-01T11:55:11;99329.72;;;12.84;52.68
71948;BME280;63257;55.082;38.772;2023-05-01T11:57:45;99350.94;;;13.08;52.78
71948;BME280;63257;55.082;38.772;2023-05-01T12:07:49;99363.53;;;12.80;52.51
71948;BME280;63257;55.082;38.772;2023-05-01T12:10:41;99377.63;;;12.81;53.39
71948;BME280;63257;55.082;38.772;2023-05-01T12:13:09;99377.44;;;12.58;53.21
71948;BME280;63257;55.082;38.772;2023-05-01T12:15:37;99369.50;;;12.58;53.25
71948;BME280;63257;55.082;38.772;2023-05-01T12:18:04;99374.13;;;12.80;53.39
71948;BME280;63257;55.082;38.772;2023-05-01T12:23:02;99376.84;;;12.42;54.27
71948;BME280;63257;55.082;38.772;2023-05-01T12:25:30;99375.47;;;12.36;54.42
71948;BME280;63257;55.082;38.772;2023-05-01T12:27:56;99379.69;;;12.38;54.79
71948;BME280;63257;55.082;38.772;2023-05-01T12:30:26;99388.09;;;12.32;55.74
71948;BME280;63257;55.082;38.772;2023-05-01T12:32:52;99398.00;;;12.42;56.18
71948;BME280;63257;55.082;38.772;2023-05-01T12:35:18;99391.53;;;12.46;56.41
71948;BME280;63257;55.082;38.772;2023-05-01T12:38:12;99397.38;;;12.25;55.52
71948;BME280;63257;55.082;38.772;2023-05-01T12:44:59;99389.88;;;12.19;56.08
71948;BME280;63257;55.082;38.772;2023-05-01T12:47:35;99421.31;;;12.24;57.10
71948;BME280;63257;55.082;38.772;2023-05-01T12:54:38;99444.03;;;12.00;56.17
71948;BME280;63257;55.082;38.772;2023-05-01T12:57:24;99432.97;;;11.81;56.87
71948;BME280;63257;55.082;38.772;2023-05-01T12:59:57;99447.53;;;11.46;59.08
71948;BME280;63257;55.082;38.772;2023-05-01T13:02:32;99486.25;;;10.91;61.06
71948;BME280;63257;55.082;38.772;2023-05-01T13:05:09;99477.56;;;10.60;62.59
71948;BME280;63257;55.082;38.772;2023-05-01T13:07:36;99487.25;;;10.45;63.92
71948;BME280;63257;55.082;38.772;2023-05-01T13:10:03;99492.66;;;10.28;64.75
71948;BME280;63257;55.082;38.772;2023-05-01T13:12:31;99470.91;;;9.94;65.51
71948;BME280;63257;55.082;38.772;2023-05-01T13:14:58;99497.59;;;10.04;65.57
71948;BME280;63257;55.082;38.772;2023-05-01T13:17:29;99522.09;;;9.90;65.87
71948;BME280;63257;55.082;38.772;2023-05-01T13:20:00;99499.19;;;10.06;66.26
71948;BME280;63257;55.082;38.772;2023-05-01T13:22:37;99512.78;;;9.84;66.25
71948;BME280;63257;55.082;38.772;2023-05-01T13:25:13;99544.03;;;9.90;66.21
71948;BME280;63257;55.082;38.772;2023-05-01T13:27:41;99518.38;;;9.78;66.56
71948;BME280;63257;55.082;38.772;2023-05-01T13:34:40;99562.34;;;9.61;66.90
71948;BME280;63257;55.082;38.772;2023-05-01T13:37:09;99539.50;;;9.62;67.57
71948;BME280;63257;55.082;38.772;2023-05-01T13:39:42;99531.31;;;9.66;67.84
71948;BME280;63257;55.082;38.772;2023-05-01T13:42:12;99532.09;;;9.68;67.84
71948;BME280;63257;55.082;38.772;2023-05-01T13:44:43;99547.53;;;9.59;68.23
71948;BME280;63257;55.082;38.772;2023-05-01T13:47:15;99571.25;;;9.43;68.37
71948;BME280;63257;55.082;38.772;2023-05-01T13:49:42;99546.44;;;9.31;68.51
71948;BME280;63257;55.082;38.772;2023-05-01T13:52:10;99566.84;;;9.27;68.52
71948;BME280;63257;55.082;38.772;2023-05-01T13:54:39;99558.50;;;9.19;69.30
71948;BME280;63257;55.082;38.772;2023-05-01T13:57:06;99564.59;;;9.20;69.19
71948;BME280;63257;55.082;38.772;2023-05-01T13:59:37;99584.34;;;8.95;69.83
71948;BME280;63257;55.082;38.772;2023-05-01T14:02:23;99593.56;;;8.86;70.67
71948;BME280;63257;55.082;38.772;2023-05-01T14:04:49;99581.34;;;8.68;70.39
71948;BME280;63257;55.082;38.772;2023-05-01T14:07:17;99532.84;;;8.38;71.34
71948;BME280;63257;55.082;38.772;2023-05-01T14:09:45;99588.31;;;8.69;70.87
71948;BME280;63257;55.082;38.772;2023-05-01T14:12:12;99597.84;;;8.54;70.32
71948;BME280;63257;55.082;38.772;2023-05-01T14:14:44;99577.47;;;8.40;71.89
71948;BME280;63257;55.082;38.772;2023-05-01T14:17:12;99612.84;;;8.52;71.61
71948;BME280;63257;55.082;38.772;2023-05-01T14:19:39;99639.19;;;8.32;71.84
71948;BME280;63257;55.082;38.772;2023-05-01T14:22:09;99630.22;;;8.37;72.18